Terminal Aerodrome Forecast
Issued by NWS

Home | Current Version | Previous Version | Text Only | Print | Product List | Glossary On
Versions: 1 2 3 4 5 6 7 8 9 10 11 12 13 14 15 16 17 18 19 20 21
546
FTUS43 KJKL 260520
TAFSJS
TAF
KSJS 260520Z 2606/2706 26007KT P6SM BKN050
     FM261000 25005KT 3SM BR BKN035
     FM261300 25006KT P6SM SCT070=

USA.gov is the U.S. government's official web portal to all federal, state and local government web resources and services.